createdAt,value
2016-10-18T00:00:57.651Z,0
2016-10-18T00:02:08.878Z,0
2016-10-18T00:03:19.775Z,0
2016-10-18T00:04:30.488Z,0
2016-10-18T00:05:41.162Z,0
2016-10-18T00:06:51.880Z,0
2016-10-18T00:08:02.588Z,0
2016-10-18T00:09:13.299Z,0
2016-10-18T00:10:24.020Z,0
2016-10-18T00:11:34.732Z,0
2016-10-18T00:12:45.452Z,0
2016-10-18T00:13:56.168Z,0
2016-10-18T00:15:06.914Z,0
2016-10-18T00:16:18.142Z,0
2016-10-18T00:17:29.438Z,0
2016-10-18T00:18:40.167Z,0
2016-10-18T00:19:50.869Z,0
2016-10-18T00:21:01.590Z,0
2016-10-18T00:22:12.312Z,0
2016-10-18T00:23:23.009Z,0
2016-10-18T00:24:33.735Z,0
2016-10-18T00:25:44.471Z,0
2016-10-18T00:26:55.220Z,0
2016-10-18T00:28:05.949Z,0
2016-10-18T00:29:16.654Z,0
2016-10-18T00:30:27.348Z,0
2016-10-18T00:31:38.055Z,0
2016-10-18T00:32:48.791Z,0
2016-10-18T00:33:59.488Z,0
2016-10-18T00:35:10.746Z,0
2016-10-18T00:36:21.835Z,0
2016-10-18T00:37:32.558Z,0
2016-10-18T00:38:43.245Z,0
2016-10-18T00:39:53.991Z,0
2016-10-18T00:41:05.236Z,0
2016-10-18T00:42:15.991Z,0
2016-10-18T00:43:26.707Z,0
2016-10-18T00:44:37.420Z,0
2016-10-18T00:45:48.175Z,0
2016-10-18T00:46:58.933Z,0
2016-10-18T00:48:09.662Z,0
2016-10-18T00:49:20.421Z,0
2016-10-18T00:50:31.643Z,0
2016-10-18T00:51:42.333Z,0
2016-10-18T00:52:53.072Z,0
2016-10-18T00:54:03.799Z,0
2016-10-18T00:55:14.497Z,0
2016-10-18T00:56:25.206Z,0
2016-10-18T00:57:35.914Z,0
2016-10-18T00:58:46.672Z,0
2016-10-18T00:59:57.382Z,0
2016-10-18T01:01:08.096Z,0
2016-10-18T01:02:18.790Z,0
2016-10-18T01:03:29.485Z,0
2016-10-18T01:04:40.194Z,0
2016-10-18T01:05:50.881Z,0
2016-10-18T01:07:01.583Z,0
2016-10-18T01:08:12.357Z,0
2016-10-18T01:09:23.098Z,0
2016-10-18T01:10:33.888Z,0
2016-10-18T01:11:44.671Z,0
2016-10-18T01:12:55.363Z,0
2016-10-18T01:14:06.095Z,0
2016-10-18T01:15:16.805Z,0
2016-10-18T01:16:27.519Z,0
2016-10-18T01:17:38.235Z,0
2016-10-18T01:18:48.980Z,0
2016-10-18T01:20:00.254Z,0
2016-10-18T01:21:10.979Z,0
2016-10-18T01:22:21.747Z,0
2016-10-18T01:23:32.450Z,0
2016-10-18T01:24:43.222Z,0
2016-10-18T01:25:53.938Z,0
2016-10-18T01:27:04.631Z,0
2016-10-18T01:28:15.385Z,0
2016-10-18T01:29:26.093Z,0
2016-10-18T01:30:36.800Z,0
2016-10-18T01:31:47.507Z,0
2016-10-18T01:32:58.216Z,0
2016-10-18T01:34:08.991Z,0
2016-10-18T01:35:19.684Z,0
2016-10-18T01:36:30.391Z,0
2016-10-18T01:37:41.131Z,0
2016-10-18T01:38:51.842Z,0
2016-10-18T01:40:02.558Z,0
2016-10-18T01:41:13.259Z,0
2016-10-18T01:42:23.972Z,0
2016-10-18T01:43:34.679Z,0
2016-10-18T01:44:45.410Z,0
2016-10-18T01:45:56.118Z,0
2016-10-18T01:47:06.809Z,0
2016-10-18T01:48:17.501Z,0
2016-10-18T01:49:28.229Z,0
2016-10-18T01:50:38.943Z,0
2016-10-18T01:51:50.179Z,0
2016-10-18T01:53:00.870Z,0
2016-10-18T01:54:11.598Z,0
2016-10-18T01:55:22.296Z,0
2016-10-18T01:56:33.033Z,0
2016-10-18T01:57:43.779Z,0
2016-10-18T01:58:54.518Z,0
2016-10-18T02:00:05.259Z,0
2016-10-18T02:01:15.986Z,0
2016-10-18T02:02:26.692Z,0
2016-10-18T02:03:37.419Z,0
2016-10-18T02:04:48.125Z,0
2016-10-18T02:05:58.846Z,0
2016-10-18T02:07:09.575Z,0
2016-10-18T02:08:20.296Z,0
2016-10-18T02:09:30.989Z,0
2016-10-18T02:10:41.698Z,0
2016-10-18T02:11:52.411Z,0
2016-10-18T02:13:03.123Z,0
2016-10-18T02:14:13.806Z,0
2016-10-18T02:15:24.549Z,0
2016-10-18T02:16:35.263Z,0
2016-10-18T02:17:45.969Z,0
2016-10-18T02:18:56.694Z,0
2016-10-18T02:20:07.392Z,0
2016-10-18T02:21:18.126Z,0
2016-10-18T02:22:28.853Z,0
2016-10-18T02:23:39.620Z,0
2016-10-18T02:24:50.346Z,0
2016-10-18T02:26:01.081Z,0
2016-10-18T02:27:11.814Z,0
2016-10-18T02:28:22.529Z,0
2016-10-18T02:29:33.756Z,0
2016-10-18T02:30:44.472Z,0
2016-10-18T02:31:55.205Z,0
2016-10-18T02:33:05.899Z,0
2016-10-18T02:34:16.585Z,0
2016-10-18T02:35:27.265Z,0
2016-10-18T02:36:37.962Z,0
2016-10-18T02:37:48.665Z,0
2016-10-18T02:38:59.376Z,0
2016-10-18T02:40:10.163Z,0
2016-10-18T02:41:20.855Z,0
2016-10-18T02:42:31.537Z,0
2016-10-18T02:43:42.283Z,0
2016-10-18T02:44:53.054Z,0
2016-10-18T02:46:03.735Z,0
2016-10-18T02:47:14.958Z,0
2016-10-18T02:48:25.669Z,0
2016-10-18T02:49:36.385Z,0
2016-10-18T02:50:47.066Z,0
2016-10-18T02:51:57.756Z,0
2016-10-18T02:53:08.463Z,0
2016-10-18T02:54:19.208Z,0
2016-10-18T02:55:29.934Z,0
2016-10-18T02:56:40.656Z,0
2016-10-18T02:57:51.379Z,0
2016-10-18T02:59:02.103Z,0
2016-10-18T03:00:12.844Z,0
2016-10-18T03:01:23.562Z,0
2016-10-18T03:02:34.252Z,0
2016-10-18T03:03:44.958Z,0
2016-10-18T03:04:55.660Z,0
2016-10-18T03:06:06.375Z,0
2016-10-18T03:07:17.070Z,0
2016-10-18T03:08:27.810Z,0
2016-10-18T03:09:38.548Z,0
2016-10-18T03:10:49.782Z,0
2016-10-18T03:12:00.491Z,0
2016-10-18T03:13:11.218Z,0
2016-10-18T03:14:22.029Z,0
2016-10-18T03:15:32.716Z,0
2016-10-18T03:16:43.444Z,0
2016-10-18T03:17:54.145Z,0
2016-10-18T03:19:04.881Z,0
2016-10-18T03:20:16.139Z,0
2016-10-18T03:21:26.832Z,0
2016-10-18T03:22:37.605Z,0
2016-10-18T03:23:48.812Z,0
2016-10-18T03:24:59.512Z,0
2016-10-18T03:26:10.262Z,0
2016-10-18T03:27:20.964Z,0
2016-10-18T03:28:31.704Z,0
2016-10-18T03:29:42.445Z,0
2016-10-18T03:30:53.156Z,0
2016-10-18T03:32:03.864Z,0
2016-10-18T03:33:14.576Z,0
2016-10-18T03:34:26.383Z,0
2016-10-18T03:35:37.125Z,0
2016-10-18T03:36:47.824Z,0
2016-10-18T03:37:58.518Z,0
2016-10-18T03:39:09.776Z,0
2016-10-18T03:40:20.547Z,0
2016-10-18T03:41:31.314Z,0
2016-10-18T03:42:42.018Z,0
2016-10-18T03:43:52.723Z,0
2016-10-18T03:45:03.981Z,0
2016-10-18T03:46:14.697Z,0
2016-10-18T03:47:25.409Z,0
2016-10-18T03:48:36.146Z,0
2016-10-18T03:49:46.866Z,0
2016-10-18T03:50:57.581Z,0
2016-10-18T03:52:08.785Z,0
2016-10-18T03:53:19.511Z,0
2016-10-18T03:54:30.201Z,0
2016-10-18T03:55:40.901Z,0
2016-10-18T03:56:51.591Z,0
2016-10-18T03:58:02.306Z,0
2016-10-18T03:59:12.990Z,0
2016-10-18T04:00:23.685Z,0
2016-10-18T04:01:34.384Z,0
2016-10-18T04:02:45.096Z,0
2016-10-18T04:03:55.826Z,0
2016-10-18T04:05:06.597Z,0
2016-10-18T04:06:17.375Z,0
2016-10-18T04:07:28.099Z,0
2016-10-18T04:08:38.846Z,0
2016-10-18T04:09:49.586Z,0
2016-10-18T04:11:00.322Z,0
2016-10-18T04:12:11.052Z,0
2016-10-18T04:13:21.760Z,0
2016-10-18T04:14:32.454Z,0
2016-10-18T04:15:43.239Z,0
2016-10-18T04:16:53.939Z,0
2016-10-18T04:18:04.693Z,0
2016-10-18T04:19:15.410Z,0
2016-10-18T04:20:26.615Z,0
2016-10-18T04:21:37.402Z,0
2016-10-18T04:22:48.132Z,0
2016-10-18T04:23:58.845Z,0
2016-10-18T04:25:09.558Z,0
2016-10-18T04:26:20.256Z,0
2016-10-18T04:27:30.968Z,0
2016-10-18T04:28:41.671Z,0
2016-10-18T04:29:52.894Z,0
2016-10-18T04:31:03.596Z,0
2016-10-18T04:32:14.295Z,0
2016-10-18T04:33:24.974Z,0
2016-10-18T04:34:35.670Z,0
2016-10-18T04:35:46.376Z,0
2016-10-18T04:36:57.091Z,0
2016-10-18T04:38:07.839Z,0
2016-10-18T04:39:18.528Z,0
2016-10-18T04:40:29.262Z,0
2016-10-18T04:41:39.956Z,0
2016-10-18T04:42:50.651Z,0
2016-10-18T04:44:01.358Z,0
2016-10-18T04:45:12.083Z,0
2016-10-18T04:46:22.817Z,0
2016-10-18T04:47:33.543Z,0
2016-10-18T04:48:44.236Z,0
2016-10-18T04:49:55.480Z,0
2016-10-18T04:51:06.228Z,0
2016-10-18T04:52:16.939Z,0
2016-10-18T04:53:27.701Z,0
2016-10-18T04:54:38.899Z,0
2016-10-18T04:55:50.108Z,0
2016-10-18T04:57:00.794Z,0
2016-10-18T04:58:11.495Z,0
2016-10-18T04:59:22.208Z,0
2016-10-18T05:00:32.887Z,0
2016-10-18T05:01:43.570Z,0
2016-10-18T05:02:54.260Z,0
2016-10-18T05:04:05.004Z,0
2016-10-18T05:05:15.765Z,0
2016-10-18T05:06:26.499Z,0
2016-10-18T05:07:37.445Z,0
2016-10-18T05:08:48.663Z,0
2016-10-18T05:09:59.373Z,0
2016-10-18T05:11:10.065Z,0
2016-10-18T05:12:20.772Z,0
2016-10-18T05:13:31.495Z,0
2016-10-18T05:14:42.204Z,0
2016-10-18T05:15:52.890Z,0
2016-10-18T05:17:03.582Z,0
2016-10-18T05:18:14.257Z,0
2016-10-18T05:19:24.964Z,0
2016-10-18T05:20:35.672Z,0
2016-10-18T05:21:46.380Z,0
2016-10-18T05:22:57.072Z,0
2016-10-18T05:24:07.772Z,0
2016-10-18T05:25:18.465Z,0
2016-10-18T05:26:29.158Z,0
2016-10-18T05:27:39.883Z,0
2016-10-18T05:28:50.607Z,0
2016-10-18T05:30:01.297Z,0
2016-10-18T05:31:11.978Z,0
2016-10-18T05:32:22.697Z,0
2016-10-18T05:33:33.448Z,0
2016-10-18T05:34:44.143Z,0
2016-10-18T05:35:54.825Z,0
2016-10-18T05:37:05.522Z,0
2016-10-18T05:38:16.225Z,0
2016-10-18T05:39:26.923Z,0
2016-10-18T05:40:37.625Z,0
2016-10-18T05:41:48.835Z,0
2016-10-18T05:42:59.538Z,0
2016-10-18T05:44:10.239Z,0
2016-10-18T05:45:22.864Z,0
2016-10-18T05:46:33.548Z,0
2016-10-18T05:47:44.747Z,0
2016-10-18T05:48:55.458Z,0
2016-10-18T05:50:06.141Z,0
2016-10-18T05:51:16.847Z,0
2016-10-18T05:52:27.547Z,0
2016-10-18T05:53:38.249Z,0
2016-10-18T05:54:48.953Z,0
2016-10-18T05:55:59.640Z,0
2016-10-18T05:57:10.372Z,0
2016-10-18T05:58:21.090Z,0
2016-10-18T05:59:31.773Z,0
2016-10-18T06:00:42.479Z,0
2016-10-18T06:01:53.224Z,0
2016-10-18T06:03:03.949Z,0
2016-10-18T06:04:14.647Z,0
2016-10-18T06:05:25.863Z,0
2016-10-18T06:06:36.573Z,0
2016-10-18T06:07:47.289Z,0
2016-10-18T06:08:58.009Z,0
2016-10-18T06:10:08.769Z,0
2016-10-18T06:11:19.509Z,0
2016-10-18T06:12:30.209Z,0
2016-10-18T06:13:40.914Z,0
2016-10-18T06:14:51.632Z,0
2016-10-18T06:16:02.577Z,0
2016-10-18T06:17:13.301Z,0
2016-10-18T06:18:24.025Z,0
2016-10-18T06:19:34.733Z,0
2016-10-18T06:20:45.433Z,0
2016-10-18T06:21:56.166Z,0
2016-10-18T06:23:06.861Z,0
2016-10-18T06:24:17.638Z,0
2016-10-18T06:25:28.403Z,0
2016-10-18T06:26:39.139Z,0
2016-10-18T06:27:49.873Z,0
2016-10-18T06:29:00.587Z,0
2016-10-18T06:30:11.297Z,0
2016-10-18T06:31:21.996Z,0
2016-10-18T06:32:32.703Z,0
2016-10-18T06:33:43.412Z,0
2016-10-18T06:34:54.135Z,0
2016-10-18T06:36:04.840Z,0
2016-10-18T06:37:15.552Z,0
2016-10-18T06:38:26.760Z,0
2016-10-18T06:39:37.473Z,0
2016-10-18T06:40:48.214Z,0
2016-10-18T06:41:58.907Z,0
2016-10-18T06:43:09.611Z,0
2016-10-18T06:44:20.313Z,0
2016-10-18T06:45:31.026Z,0
2016-10-18T06:46:41.793Z,0
2016-10-18T06:47:52.515Z,0
2016-10-18T06:49:03.246Z,0
2016-10-18T06:50:13.983Z,0
2016-10-18T06:51:24.714Z,0
2016-10-18T06:52:35.404Z,0
2016-10-18T06:53:46.109Z,0
2016-10-18T06:54:56.821Z,0
2016-10-18T06:56:07.532Z,0
2016-10-18T06:57:18.237Z,0
2016-10-18T06:58:28.935Z,0
2016-10-18T06:59:39.664Z,0
2016-10-18T07:00:50.362Z,0
2016-10-18T07:02:01.049Z,0
2016-10-18T07:03:11.789Z,0
2016-10-18T07:04:22.502Z,0
2016-10-18T07:05:33.197Z,0
2016-10-18T07:06:43.929Z,0
2016-10-18T07:07:54.658Z,0
2016-10-18T07:09:05.388Z,0
2016-10-18T07:10:16.143Z,0
2016-10-18T07:11:26.855Z,0
2016-10-18T07:12:37.566Z,0
2016-10-18T07:13:48.270Z,0
2016-10-18T07:14:58.964Z,0
2016-10-18T07:16:09.700Z,0
2016-10-18T07:17:20.406Z,0
2016-10-18T07:18:31.132Z,0
2016-10-18T07:19:41.843Z,0
2016-10-18T07:20:52.588Z,0
2016-10-18T07:22:03.317Z,0
2016-10-18T07:23:14.024Z,0
2016-10-18T07:24:24.769Z,0
2016-10-18T07:25:35.517Z,0
2016-10-18T07:26:46.219Z,0
2016-10-18T07:27:56.936Z,0
2016-10-18T07:29:07.640Z,0
2016-10-18T07:30:18.330Z,0
2016-10-18T07:31:29.077Z,0
2016-10-18T07:32:39.836Z,0
2016-10-18T07:33:50.552Z,0
2016-10-18T07:35:01.243Z,0
2016-10-18T07:36:11.963Z,0
2016-10-18T07:37:22.654Z,0
2016-10-18T07:38:33.351Z,0
2016-10-18T07:39:44.087Z,0
2016-10-18T07:40:54.852Z,0
2016-10-18T07:42:05.580Z,0
2016-10-18T07:43:16.290Z,0
2016-10-18T07:44:26.986Z,0
2016-10-18T07:45:37.733Z,0
2016-10-18T07:46:48.463Z,0
2016-10-18T07:47:59.162Z,0
2016-10-18T07:49:09.872Z,0
2016-10-18T07:50:20.586Z,0
2016-10-18T07:51:31.313Z,0
2016-10-18T07:52:42.015Z,0
2016-10-18T07:53:52.726Z,0
2016-10-18T07:55:03.436Z,0
2016-10-18T07:56:14.116Z,0
2016-10-18T07:57:24.847Z,0
2016-10-18T07:58:35.612Z,0
2016-10-18T07:59:46.319Z,0
2016-10-18T08:00:57.037Z,0
2016-10-18T08:02:07.719Z,0
2016-10-18T08:03:18.931Z,0
2016-10-18T08:04:29.640Z,0
2016-10-18T08:05:40.332Z,0
2016-10-18T08:06:51.103Z,4
2016-10-18T08:08:01.827Z,0
2016-10-18T08:09:13.297Z,4
2016-10-18T08:10:24.212Z,8
2016-10-18T08:11:35.450Z,4
2016-10-18T08:12:46.168Z,12
2016-10-18T08:13:56.870Z,12
2016-10-18T08:15:07.561Z,20
2016-10-18T08:16:18.272Z,24
2016-10-18T08:17:28.994Z,32
2016-10-18T08:18:39.681Z,40
2016-10-18T08:19:50.392Z,52
2016-10-18T08:21:01.088Z,64
2016-10-18T08:22:11.800Z,80
2016-10-18T08:23:22.574Z,104
2016-10-18T08:24:33.853Z,132
2016-10-18T08:25:44.554Z,172
2016-10-18T08:26:55.314Z,236
2016-10-18T08:28:06.013Z,296
2016-10-18T08:29:16.771Z,304
2016-10-18T08:30:27.472Z,312
2016-10-18T08:31:38.168Z,352
2016-10-18T08:32:48.883Z,396
2016-10-18T08:33:59.583Z,436
2016-10-18T08:35:10.301Z,492
2016-10-18T08:36:21.013Z,584
2016-10-18T08:37:31.704Z,712
2016-10-18T08:38:42.438Z,848
2016-10-18T08:39:53.160Z,1004
2016-10-18T08:41:03.857Z,1164
2016-10-18T08:42:14.592Z,1344
2016-10-18T08:43:25.292Z,1536
2016-10-18T08:44:36.517Z,1736
2016-10-18T08:45:47.241Z,1956
2016-10-18T08:46:57.971Z,2164
2016-10-18T08:48:09.188Z,2380
2016-10-18T08:49:19.911Z,2560
2016-10-18T08:50:30.656Z,2792
2016-10-18T08:51:41.374Z,3056
2016-10-18T08:52:52.076Z,3296
2016-10-18T08:54:02.788Z,3528
2016-10-18T08:55:13.468Z,3776
2016-10-18T08:56:24.213Z,4028
2016-10-18T08:57:34.941Z,4268
2016-10-18T08:58:45.654Z,4484
2016-10-18T08:59:56.348Z,4684
2016-10-18T09:01:07.113Z,4872
2016-10-18T09:02:17.838Z,5056
2016-10-18T09:03:28.572Z,5244
2016-10-18T09:04:39.325Z,5440
2016-10-18T09:05:50.040Z,5660
2016-10-18T09:07:00.738Z,5956
2016-10-18T09:08:11.444Z,6444
2016-10-18T09:09:22.151Z,6820
2016-10-18T09:10:32.844Z,7168
2016-10-18T09:11:43.539Z,6832
2016-10-18T09:12:54.320Z,6944
2016-10-18T09:14:05.041Z,7144
2016-10-18T09:15:15.747Z,7392
2016-10-18T09:16:26.444Z,7716
2016-10-18T09:17:37.131Z,8028
2016-10-18T09:18:47.847Z,8308
2016-10-18T09:19:58.559Z,8636
2016-10-18T09:21:09.264Z,9028
2016-10-18T09:22:20.485Z,9484
2016-10-18T09:23:31.189Z,10044
2016-10-18T09:24:41.887Z,10652
2016-10-18T09:25:52.600Z,11112
2016-10-18T09:27:03.301Z,11468
2016-10-18T09:28:14.002Z,11948
2016-10-18T09:29:24.772Z,12540
2016-10-18T09:30:35.485Z,13108
2016-10-18T09:31:46.169Z,13548
2016-10-18T09:32:56.911Z,14076
2016-10-18T09:34:07.617Z,14772
2016-10-18T09:35:18.373Z,15416
2016-10-18T09:36:29.076Z,16576
2016-10-18T09:37:39.759Z,16864
2016-10-18T09:38:50.490Z,17248
2016-10-18T09:40:01.252Z,17600
2016-10-18T09:41:12.495Z,18016
2016-10-18T09:42:23.202Z,18848
2016-10-18T09:43:33.909Z,20448
2016-10-18T09:44:44.601Z,23520
2016-10-18T09:45:55.344Z,27264
2016-10-18T09:47:06.036Z,27520
2016-10-18T09:48:16.759Z,26144
2016-10-18T09:49:27.497Z,24896
2016-10-18T09:50:38.222Z,24832
2016-10-18T09:51:48.928Z,25152
2016-10-18T09:52:59.652Z,26240
2016-10-18T09:54:10.370Z,25568
2016-10-18T09:55:21.082Z,25792
2016-10-18T09:56:31.867Z,26368
2016-10-18T09:57:43.073Z,27680
2016-10-18T09:58:53.801Z,30336
2016-10-18T10:00:04.514Z,30848
2016-10-18T10:01:15.222Z,28992
2016-10-18T10:02:25.940Z,29824
2016-10-18T10:03:36.671Z,31968
2016-10-18T10:04:47.404Z,32096
2016-10-18T10:05:58.121Z,36352
2016-10-18T10:07:08.835Z,38208
2016-10-18T10:08:19.531Z,32384
2016-10-18T10:09:30.246Z,29248
2016-10-18T10:10:40.953Z,29536
2016-10-18T10:11:51.638Z,29504
2016-10-18T10:13:02.360Z,26016
2016-10-18T10:14:13.073Z,24128
2016-10-18T10:15:23.884Z,24512
2016-10-18T10:16:34.694Z,29536
2016-10-18T10:17:45.401Z,33344
2016-10-18T10:18:56.113Z,36416
2016-10-18T10:20:06.839Z,35808
2016-10-18T10:21:18.030Z,31808
2016-10-18T10:22:28.754Z,27744
2016-10-18T10:23:39.464Z,25280
2016-10-18T10:24:50.385Z,24160
2016-10-18T10:26:02.304Z,23936
2016-10-18T10:27:13.022Z,24192
2016-10-18T10:28:24.498Z,23968
2016-10-18T10:29:34.468Z,23104
2016-10-18T10:30:45.690Z,23360
2016-10-18T10:31:56.399Z,23616
2016-10-18T10:33:07.131Z,23808
2016-10-18T10:34:18.344Z,24064
2016-10-18T10:35:29.075Z,24160
2016-10-18T10:36:39.798Z,24352
2016-10-18T10:37:51.039Z,24640
2016-10-18T10:39:01.737Z,25024
2016-10-18T10:40:12.451Z,26240
2016-10-18T10:41:23.192Z,27328
2016-10-18T10:42:33.905Z,28512
2016-10-18T10:43:44.606Z,29376
2016-10-18T10:44:55.334Z,29888
2016-10-18T10:46:06.098Z,30784
2016-10-18T10:47:16.824Z,31328
2016-10-18T10:48:27.581Z,29792
2016-10-18T10:49:38.309Z,30304
2016-10-18T10:50:49.015Z,27072
2016-10-18T10:51:59.754Z,27488
2016-10-18T10:53:10.464Z,27840
2016-10-18T10:54:21.176Z,31648
2016-10-18T10:55:31.903Z,33376
2016-10-18T10:56:42.656Z,47616
2016-10-18T10:57:53.349Z,46720
2016-10-18T10:59:04.080Z,48352
2016-10-18T11:00:14.802Z,49632
2016-10-18T11:01:25.549Z,48960
2016-10-18T11:02:36.316Z,50912
2016-10-18T11:03:47.058Z,50400
2016-10-18T11:04:57.779Z,47392
2016-10-18T11:06:08.497Z,47136
2016-10-18T11:07:19.190Z,49120
2016-10-18T11:08:29.941Z,50080
2016-10-18T11:09:40.646Z,49664
2016-10-18T11:10:51.359Z,47584
2016-10-18T11:12:02.272Z,45984
2016-10-18T11:13:13.018Z,44960
2016-10-18T11:14:23.750Z,49024
2016-10-18T11:15:34.475Z,49920
2016-10-18T11:16:45.213Z,49504
2016-10-18T11:17:55.979Z,50080
2016-10-18T11:19:06.718Z,49120
2016-10-18T11:20:17.424Z,53888
2016-10-18T11:21:28.158Z,60064
2016-10-18T11:22:38.907Z,60544
2016-10-18T11:23:49.613Z,52128
2016-10-18T11:25:00.326Z,48576
2016-10-18T11:26:11.088Z,51968
2016-10-18T11:27:21.791Z,52064
2016-10-18T11:28:32.509Z,51328
2016-10-18T11:29:43.221Z,57792
2016-10-18T11:30:54.003Z,63648
2016-10-18T11:32:04.764Z,63552
2016-10-18T11:33:15.826Z,69088
2016-10-18T11:34:26.572Z,70112
2016-10-18T11:35:37.327Z,77376
2016-10-18T11:36:48.131Z,79072
2016-10-18T11:37:58.873Z,80768
2016-10-18T11:39:09.597Z,83424
2016-10-18T11:40:20.332Z,86688
2016-10-18T11:41:31.051Z,89088
2016-10-18T11:42:41.763Z,90080
2016-10-18T11:43:52.496Z,91040
2016-10-18T11:45:03.240Z,89248
2016-10-18T11:46:13.949Z,96640
2016-10-18T11:47:24.669Z,106784
2016-10-18T11:48:35.918Z,96640
2016-10-18T11:49:46.635Z,92320
2016-10-18T11:50:57.363Z,95072
2016-10-18T11:52:08.106Z,98016
2016-10-18T11:53:18.885Z,96672
2016-10-18T11:54:29.599Z,87680
2016-10-18T11:55:40.343Z,88000
2016-10-18T11:56:51.075Z,91200
2016-10-18T11:58:01.813Z,91712
2016-10-18T11:59:12.561Z,88000
2016-10-18T12:00:23.797Z,94720
2016-10-18T12:01:34.542Z,92512
2016-10-18T12:02:45.257Z,96576
2016-10-18T12:03:55.965Z,87552
2016-10-18T12:05:06.660Z,78944
2016-10-18T12:06:17.388Z,88800
2016-10-18T12:07:28.105Z,97728
2016-10-18T12:08:38.818Z,96544
2016-10-18T12:09:49.530Z,99392
2016-10-18T12:11:00.237Z,99840
2016-10-18T12:12:10.956Z,97184
2016-10-18T12:13:21.667Z,90624
2016-10-18T12:14:32.400Z,97984
2016-10-18T12:15:43.131Z,103264
2016-10-18T12:16:54.765Z,92960
2016-10-18T12:18:06.033Z,92992
2016-10-18T12:19:17.358Z,89984
2016-10-18T12:20:28.653Z,84000
2016-10-18T12:21:39.808Z,90592
2016-10-18T12:22:51.007Z,93312
2016-10-18T12:24:02.200Z,98432
2016-10-18T12:25:13.403Z,97440
2016-10-18T12:26:24.616Z,97088
2016-10-18T12:27:35.803Z,98528
2016-10-18T12:28:47.024Z,91552
2016-10-18T12:29:58.292Z,88224
2016-10-18T12:31:09.516Z,82656
2016-10-18T12:32:20.847Z,85856
2016-10-18T12:33:32.236Z,86432
2016-10-18T12:34:43.393Z,57440
2016-10-18T12:35:54.671Z,78144
2016-10-18T12:37:05.919Z,87968
2016-10-18T12:38:17.087Z,87136
2016-10-18T12:39:28.279Z,86272
2016-10-18T12:40:39.473Z,94016
2016-10-18T12:41:50.651Z,97376
2016-10-18T12:43:01.826Z,102400
2016-10-18T12:44:13.017Z,106592
2016-10-18T12:45:24.237Z,93792
2016-10-18T12:46:35.420Z,99264
2016-10-18T12:47:46.600Z,90624
2016-10-18T12:48:57.848Z,96256
2016-10-18T12:50:09.059Z,102048
2016-10-18T12:51:20.287Z,110304
2016-10-18T12:52:31.488Z,108896
2016-10-18T12:53:42.668Z,105600
2016-10-18T12:54:53.858Z,101696
2016-10-18T12:56:05.110Z,97312
2016-10-18T12:57:16.297Z,93184
2016-10-18T12:58:27.519Z,95808
2016-10-18T12:59:38.727Z,96768
2016-10-18T13:00:49.911Z,96576
2016-10-18T13:02:01.254Z,90592
2016-10-18T13:03:12.010Z,83552
2016-10-18T13:04:22.729Z,89888
2016-10-18T13:05:33.492Z,96032
2016-10-18T13:06:44.219Z,105888
2016-10-18T13:07:54.955Z,106560
2016-10-18T13:09:06.220Z,102752
2016-10-18T13:10:16.943Z,105312
2016-10-18T13:11:27.657Z,102528
2016-10-18T13:12:38.382Z,110880
2016-10-18T13:13:49.174Z,103104
2016-10-18T13:14:59.874Z,101216
2016-10-18T13:16:10.590Z,100288
2016-10-18T13:17:22.129Z,109632
2016-10-18T13:18:32.878Z,117824
2016-10-18T13:19:44.129Z,123744
2016-10-18T13:20:54.848Z,109888
2016-10-18T13:22:05.557Z,85664
2016-10-18T13:23:16.310Z,103744
2016-10-18T13:24:27.579Z,68736
2016-10-18T13:25:38.282Z,66464
2016-10-18T13:26:49.557Z,85440
2016-10-18T13:28:00.286Z,95360
2016-10-18T13:29:11.021Z,68288
2016-10-18T13:30:22.053Z,82496
2016-10-18T13:31:33.304Z,80128
2016-10-18T13:32:44.224Z,92032
2016-10-18T13:33:54.963Z,77664
2016-10-18T13:35:06.201Z,83712
2016-10-18T13:36:17.037Z,85664
2016-10-18T13:37:27.743Z,107904
2016-10-18T13:38:38.466Z,95616
2016-10-18T13:39:49.782Z,129920
2016-10-18T13:41:00.506Z,116128
2016-10-18T13:42:11.249Z,126880
2016-10-18T13:43:22.487Z,125376
2016-10-18T13:44:33.225Z,120448
2016-10-18T13:45:43.992Z,112000
2016-10-18T13:46:55.260Z,103200
2016-10-18T13:48:06.023Z,92896
2016-10-18T13:49:17.475Z,100960
2016-10-18T13:50:29.370Z,101760
2016-10-18T13:51:40.065Z,104928
2016-10-18T13:52:50.772Z,125824
2016-10-18T13:54:01.536Z,116352
2016-10-18T13:55:12.238Z,116352
2016-10-18T13:56:23.469Z,128352
2016-10-18T13:57:34.862Z,111168
2016-10-18T13:58:45.579Z,95232
2016-10-18T13:59:56.310Z,117184
2016-10-18T14:01:07.039Z,114752
2016-10-18T14:02:17.763Z,114368
2016-10-18T14:03:28.488Z,125568
2016-10-18T14:04:39.257Z,114816
2016-10-18T14:05:49.985Z,100192
2016-10-18T14:07:00.752Z,120224
2016-10-18T14:08:11.467Z,121216
2016-10-18T14:09:22.210Z,109152
2016-10-18T14:10:32.928Z,102816
2016-10-18T14:11:43.633Z,114272
2016-10-18T14:12:54.375Z,120928
2016-10-18T14:14:05.120Z,116864
2016-10-18T14:15:16.436Z,118784
2016-10-18T14:16:27.685Z,114080
2016-10-18T14:17:38.401Z,107904
2016-10-18T14:18:49.148Z,112960
2016-10-18T14:19:59.947Z,123488
2016-10-18T14:21:10.665Z,121920
2016-10-18T14:22:21.422Z,122272
2016-10-18T14:23:32.118Z,120032
2016-10-18T14:24:43.353Z,115872
2016-10-18T14:25:54.051Z,117504
2016-10-18T14:27:04.791Z,122368
2016-10-18T14:28:15.536Z,121856
2016-10-18T14:29:26.280Z,118272
2016-10-18T14:30:37.002Z,113312
2016-10-18T14:31:48.265Z,114592
2016-10-18T14:32:59.017Z,114912
2016-10-18T14:34:09.756Z,112832
2016-10-18T14:35:20.448Z,110624
2016-10-18T14:36:31.176Z,110592
2016-10-18T14:37:41.890Z,112960
2016-10-18T14:38:52.623Z,109920
2016-10-18T14:40:03.350Z,107392
2016-10-18T14:41:14.062Z,107520
2016-10-18T14:42:25.349Z,108000
2016-10-18T14:43:36.097Z,110688
2016-10-18T14:44:47.365Z,113792
2016-10-18T14:45:58.093Z,109504
2016-10-18T14:47:08.823Z,111936
2016-10-18T14:48:19.540Z,114688
2016-10-18T14:49:30.805Z,113472
2016-10-18T14:50:41.527Z,115200
2016-10-18T14:51:52.258Z,119744
2016-10-18T14:53:02.983Z,116512
2016-10-18T14:54:13.719Z,112928
2016-10-18T14:55:24.465Z,110976
2016-10-18T14:56:35.183Z,109824
2016-10-18T14:57:45.923Z,104864
2016-10-18T14:58:56.687Z,108448
2016-10-18T15:00:08.822Z,110272
2016-10-18T15:01:19.562Z,116832
2016-10-18T15:02:30.304Z,116320
2016-10-18T15:03:41.015Z,118176
2016-10-18T15:04:51.767Z,121856
2016-10-18T15:06:02.486Z,121696
2016-10-18T15:07:13.225Z,123136
2016-10-18T15:08:23.961Z,120544
2016-10-18T15:09:34.720Z,117984
2016-10-18T15:10:45.434Z,121568
2016-10-18T15:11:56.169Z,120160
2016-10-18T15:13:06.929Z,120224
2016-10-18T15:14:17.647Z,119808
2016-10-18T15:15:28.389Z,120064
2016-10-18T15:16:39.097Z,120672
2016-10-18T15:17:49.843Z,114784
2016-10-18T15:19:00.594Z,116192
2016-10-18T15:20:11.334Z,114624
2016-10-18T15:21:22.051Z,115616
2016-10-18T15:22:32.783Z,116416
2016-10-18T15:23:43.508Z,115328
2016-10-18T15:24:54.236Z,117600
2016-10-18T15:26:05.504Z,122560
2016-10-18T15:27:16.226Z,121184
2016-10-18T15:28:26.943Z,116992
2016-10-18T15:29:37.727Z,119904
2016-10-18T15:30:48.440Z,117952
2016-10-18T15:31:59.154Z,113856
2016-10-18T15:33:09.955Z,114016
2016-10-18T15:34:21.215Z,116672
2016-10-18T15:35:31.948Z,116224
2016-10-18T15:36:42.684Z,108448
2016-10-18T15:37:53.429Z,107456
2016-10-18T15:39:04.170Z,111392
2016-10-18T15:40:14.904Z,111104
2016-10-18T15:41:25.617Z,113728
2016-10-18T15:42:36.339Z,119840
2016-10-18T15:43:47.062Z,119296
2016-10-18T15:44:57.807Z,119872
2016-10-18T15:46:08.538Z,122656
2016-10-18T15:47:19.928Z,109216
2016-10-18T15:48:31.150Z,115168
2016-10-18T15:49:41.912Z,116192
2016-10-18T15:50:52.666Z,34304
2016-10-18T15:52:03.397Z,30912
2016-10-18T15:53:14.108Z,28960
2016-10-18T15:54:24.832Z,29120
2016-10-18T15:55:35.552Z,30560
2016-10-18T15:56:46.289Z,41760
2016-10-18T15:57:57.544Z,124640
2016-10-18T15:59:08.268Z,127168
2016-10-18T16:00:19.008Z,126464
2016-10-18T16:01:30.259Z,127808
2016-10-18T16:02:40.978Z,130112
2016-10-18T16:03:52.204Z,127744
2016-10-18T16:05:03.453Z,125408
2016-10-18T16:06:14.154Z,130336
2016-10-18T16:07:24.961Z,130720
2016-10-18T16:08:35.713Z,119776
2016-10-18T16:09:46.438Z,105152
2016-10-18T16:10:57.168Z,101472
2016-10-18T16:12:07.936Z,109536
2016-10-18T16:13:18.709Z,122304